createdAt,value
2022-12-20T00:00:42.365Z,102591.25
2022-12-20T00:03:46.341Z,102602.94
2022-12-20T00:06:49.360Z,102668.13
2022-12-20T00:09:33.770Z,102706.25
2022-12-20T00:12:24.335Z,102674.09
2022-12-20T00:15:08.283Z,102517.72
2022-12-20T00:17:35.417Z,102498.81
2022-12-20T00:20:02.441Z,102644.38
2022-12-20T00:22:29.753Z,102614.09
2022-12-20T00:24:56.961Z,102572.94
2022-12-20T00:27:24.255Z,102521.50
2022-12-20T00:30:11.351Z,102667.81
2022-12-20T00:32:56.807Z,102658.31
2022-12-20T00:35:57.346Z,102610.16
2022-12-20T00:38:36.905Z,102474.78
2022-12-20T00:41:12.021Z,102679.91
2022-12-20T00:43:40.106Z,102633.94
2022-12-20T00:46:09.114Z,102706.44
2022-12-20T00:48:36.652Z,102683.56
2022-12-20T00:51:09.188Z,102606.34
2022-12-20T00:53:37.208Z,102668.75
2022-12-20T00:56:05.776Z,102350.75
2022-12-20T00:58:35.608Z,102682.59
2022-12-20T01:01:06.552Z,102545.25
2022-12-20T01:03:34.305Z,102633.38
2022-12-20T01:06:16.428Z,102668.31
2022-12-20T01:09:17.372Z,102672.81
2022-12-20T01:12:18.452Z,102663.75
2022-12-20T01:15:20.415Z,102672.84
2022-12-20T01:18:01.058Z,102506.59
2022-12-20T01:20:28.359Z,102629.47
2022-12-20T01:22:55.595Z,102590.78
2022-12-20T01:25:42.397Z,102628.38
2022-12-20T01:28:23.103Z,102604.31
2022-12-20T01:31:03.517Z,102585.72
2022-12-20T01:33:45.203Z,102606.13
2022-12-20T01:36:16.875Z,102658.69
2022-12-20T01:38:44.233Z,102480.81
2022-12-20T01:41:22.945Z,102480.34
2022-12-20T01:44:38.718Z,102293.25
2022-12-20T01:50:31.403Z,102293.06
2022-12-20T01:53:26.987Z,102380.47
2022-12-20T01:56:00.618Z,102495.13
2022-12-20T01:58:40.593Z,102506.81
2022-12-20T02:01:22.967Z,102488.28
2022-12-20T02:04:15.755Z,102631.69
2022-12-20T02:07:10.450Z,102454.72
2022-12-20T02:10:42.197Z,102629.75
2022-12-20T02:14:07.559Z,102480.34
2022-12-20T02:17:21.666Z,102407.16
2022-12-20T02:20:25.249Z,102622.72
2022-12-20T02:23:53.998Z,102630.25
2022-12-20T02:27:18.970Z,102622.34
2022-12-20T02:30:42.680Z,102630.53
2022-12-20T02:33:28.752Z,102461.84
2022-12-20T02:35:59.669Z,102642.41
2022-12-20T02:41:32.154Z,102623.03
2022-12-20T02:47:54.618Z,102451.53
2022-12-20T02:50:33.318Z,102300.25
2022-12-20T02:56:19.221Z,102508.69
2022-12-20T02:59:42.424Z,102612.88
2022-12-20T03:02:29.531Z,102600.72
2022-12-20T03:14:29.756Z,102476.44
2022-12-20T03:17:14.374Z,102222.16
2022-12-20T03:19:54.026Z,102415.56
2022-12-20T03:22:43.527Z,102554.72
2022-12-20T03:25:24.571Z,102437.72
2022-12-20T03:27:53.678Z,102265.22
2022-12-20T03:31:07.309Z,102557.16
2022-12-20T03:34:24.794Z,102221.22
2022-12-20T03:37:08.076Z,102581.53
2022-12-20T03:40:02.596Z,102460.28
2022-12-20T03:42:38.747Z,102359.59
2022-12-20T03:45:31.999Z,102235.13
2022-12-20T03:48:46.741Z,102214.56
2022-12-20T03:51:26.422Z,102310.38
2022-12-20T03:54:22.777Z,102566.25
2022-12-20T03:57:13.684Z,102226.38
2022-12-20T04:00:00.101Z,102586.19
2022-12-20T04:02:55.700Z,102536.47
2022-12-20T04:05:36.300Z,102584.03
2022-12-20T04:08:23.459Z,102522.34
2022-12-20T04:11:19.292Z,102457.50
2022-12-20T04:14:14.427Z,102450.72
2022-12-20T04:16:56.132Z,102519.13
2022-12-20T04:19:24.114Z,102439.22
2022-12-20T04:21:51.232Z,102436.00
2022-12-20T04:24:20.072Z,102446.59
2022-12-20T04:27:13.107Z,102529.66
2022-12-20T04:30:00.440Z,102441.19
2022-12-20T04:32:54.829Z,102469.00
2022-12-20T04:35:22.978Z,102412.03
2022-12-20T04:37:50.508Z,102486.31
2022-12-20T04:40:17.704Z,102464.75
2022-12-20T04:43:07.463Z,102390.25
2022-12-20T04:46:09.598Z,102447.53
2022-12-20T04:48:57.892Z,102439.94
2022-12-20T04:51:26.479Z,102333.66
2022-12-20T04:53:53.699Z,102552.44
2022-12-20T04:56:28.930Z,102376.78
2022-12-20T04:59:03.441Z,102415.78
2022-12-20T05:01:31.481Z,102532.53
2022-12-20T05:03:58.679Z,102526.09
2022-12-20T05:06:45.483Z,102417.97
2022-12-20T05:09:26.291Z,102439.00
2022-12-20T05:11:55.326Z,102398.09
2022-12-20T05:14:22.393Z,102392.06
2022-12-20T05:17:09.504Z,102440.88
2022-12-20T05:19:50.155Z,102383.06
2022-12-20T05:22:35.773Z,102358.44
2022-12-20T05:25:49.871Z,102416.38
2022-12-20T05:28:30.831Z,102367.13
2022-12-20T05:31:17.521Z,102409.19
2022-12-20T05:33:58.100Z,102405.44
2022-12-20T05:36:30.000Z,102503.25
2022-12-20T05:39:03.917Z,102441.06
2022-12-20T05:41:32.887Z,102411.22
2022-12-20T05:44:00.964Z,102404.34
2022-12-20T05:46:42.581Z,102450.88
2022-12-20T05:49:48.502Z,102508.63
2022-12-20T05:52:30.303Z,102506.91
2022-12-20T05:54:57.299Z,102487.94
2022-12-20T05:57:45.539Z,102389.63
2022-12-20T06:00:35.164Z,102292.66
2022-12-20T06:03:02.357Z,102285.59
2022-12-20T06:05:33.110Z,102507.63
2022-12-20T06:08:21.526Z,102491.41
2022-12-20T06:11:18.318Z,102528.78
2022-12-20T06:13:51.183Z,102326.69
2022-12-20T06:16:20.907Z,102341.84
2022-12-20T06:18:48.107Z,102322.66
2022-12-20T06:21:16.483Z,102533.59
2022-12-20T06:23:44.579Z,102527.19
2022-12-20T06:26:13.664Z,102386.03
2022-12-20T06:28:52.777Z,102477.50
2022-12-20T06:31:48.608Z,102543.88
2022-12-20T06:34:29.276Z,102457.66
2022-12-20T06:36:56.492Z,102431.84
2022-12-20T06:39:27.195Z,102466.13
2022-12-20T06:42:02.921Z,102489.56
2022-12-20T06:44:30.495Z,102470.97
2022-12-20T06:46:57.652Z,102526.38
2022-12-20T06:49:45.830Z,102321.75
2022-12-20T06:53:00.601Z,102485.94
2022-12-20T06:56:02.502Z,102513.13
2022-12-20T06:58:43.294Z,102416.81
2022-12-20T07:01:10.283Z,102416.94
2022-12-20T07:03:37.440Z,102532.63
2022-12-20T07:06:24.581Z,102492.72
2022-12-20T07:09:20.982Z,102407.72
2022-12-20T07:11:47.846Z,102472.50
2022-12-20T07:14:14.918Z,102549.50
2022-12-20T07:17:01.668Z,102504.97
2022-12-20T07:19:47.189Z,102471.84
2022-12-20T07:22:17.689Z,102355.84
2022-12-20T07:25:04.521Z,102432.63
2022-12-20T07:27:52.172Z,102439.84
2022-12-20T07:30:39.665Z,102538.75
2022-12-20T07:33:20.465Z,102464.47
2022-12-20T07:35:53.992Z,102397.81
2022-12-20T07:38:22.782Z,102464.53
2022-12-20T07:40:50.028Z,102464.03
2022-12-20T07:43:17.038Z,102548.91
2022-12-20T07:46:10.612Z,102456.50
2022-12-20T07:49:12.564Z,102482.94
2022-12-20T07:51:57.713Z,102470.06
2022-12-20T07:54:30.378Z,102545.38
2022-12-20T07:57:24.646Z,102526.91
2022-12-20T08:00:26.685Z,102557.25
2022-12-20T08:03:23.492Z,102443.13
2022-12-20T08:05:54.005Z,102483.59
2022-12-20T08:08:41.563Z,102434.63
2022-12-20T08:11:24.540Z,102470.16
2022-12-20T08:13:57.533Z,102478.81
2022-12-20T08:16:45.596Z,102457.81
2022-12-20T08:19:32.049Z,102380.72
2022-12-20T08:21:59.794Z,102400.31
2022-12-20T08:24:26.872Z,102481.59
2022-12-20T08:26:53.935Z,102388.91
2022-12-20T08:30:40.061Z,102551.50
2022-12-20T08:42:28.453Z,102331.84
2022-12-20T08:53:20.723Z,102553.16
2022-12-20T08:56:37.579Z,102300.16
2022-12-20T08:59:06.481Z,102244.81
2022-12-20T09:01:39.952Z,102181.19
2022-12-20T09:04:37.655Z,102523.22
2022-12-20T09:07:53.614Z,102393.81
2022-12-20T09:11:21.380Z,102311.06
2022-12-20T09:14:22.524Z,102564.06
2022-12-20T09:16:57.187Z,102499.00
2022-12-20T09:19:25.959Z,102452.00
2022-12-20T09:21:56.529Z,102575.34
2022-12-20T09:24:24.389Z,102429.03
2022-12-20T09:27:06.866Z,102227.47
2022-12-20T09:29:52.953Z,102476.59
2022-12-20T09:32:54.419Z,102341.91
2022-12-20T09:36:16.034Z,102453.13
2022-12-20T09:38:48.773Z,102553.69
2022-12-20T09:42:02.841Z,102523.38
2022-12-20T09:45:21.676Z,102566.13
2022-12-20T09:48:26.484Z,102315.09
2022-12-20T09:51:39.696Z,102190.06
2022-12-20T09:54:54.400Z,102543.06
2022-12-20T09:58:14.695Z,102410.25
2022-12-20T10:01:05.423Z,102330.22
2022-12-20T10:03:36.278Z,102528.78
2022-12-20T10:07:00.816Z,102444.28
2022-12-20T10:10:18.670Z,102517.63
2022-12-20T10:13:35.957Z,102508.13
2022-12-20T10:17:17.839Z,102294.88
2022-12-20T10:20:23.152Z,102514.44
2022-12-20T10:23:13.691Z,102234.00
2022-12-20T10:25:42.561Z,102144.53
2022-12-20T10:28:17.118Z,102469.13
2022-12-20T10:31:07.783Z,102389.53
2022-12-20T10:33:48.408Z,102295.69
2022-12-20T10:36:19.585Z,102358.41
2022-12-20T10:38:50.525Z,102425.97
2022-12-20T10:41:29.799Z,102414.88
2022-12-20T10:43:59.559Z,102468.47
2022-12-20T10:46:45.771Z,102415.28
2022-12-20T10:49:47.683Z,102467.16
2022-12-20T10:52:28.293Z,102390.41
2022-12-20T10:54:55.533Z,102447.63
2022-12-20T10:57:26.358Z,102427.53
2022-12-20T10:59:57.796Z,102440.06
2022-12-20T11:02:42.005Z,102435.38
2022-12-20T11:05:37.001Z,102444.63
2022-12-20T11:08:46.787Z,102335.97
2022-12-20T11:11:34.563Z,102355.34
2022-12-20T11:14:15.997Z,102132.56
2022-12-20T11:16:53.452Z,102336.31
2022-12-20T11:20:00.685Z,102422.31
2022-12-20T11:23:10.649Z,102422.91
2022-12-20T11:26:19.246Z,102414.56
2022-12-20T11:29:08.294Z,102394.22
2022-12-20T11:32:30.698Z,102404.34
2022-12-20T11:35:23.775Z,102417.63
2022-12-20T11:38:39.363Z,102278.88
2022-12-20T11:42:03.825Z,102393.63
2022-12-20T11:45:33.656Z,102410.63
2022-12-20T11:48:36.994Z,102044.53
2022-12-20T11:51:21.461Z,102034.03
2022-12-20T11:54:27.301Z,102375.88
2022-12-20T11:58:02.091Z,102030.59
2022-12-20T12:00:42.273Z,102000.09
2022-12-20T12:03:27.385Z,101997.47
2022-12-20T12:06:23.848Z,102229.88
2022-12-20T12:09:47.090Z,102354.81
2022-12-20T12:12:34.419Z,102351.69
2022-12-20T12:15:39.563Z,102347.75
2022-12-20T12:18:21.628Z,102053.72
2022-12-20T12:20:57.067Z,102345.63
2022-12-20T12:23:50.213Z,102338.88
2022-12-20T12:26:24.782Z,102093.75
2022-12-20T12:29:00.634Z,102097.47
2022-12-20T12:32:00.885Z,101911.88
2022-12-20T12:35:44.056Z,101945.53
2022-12-20T12:39:01.995Z,101925.31
2022-12-20T12:41:36.160Z,102295.22
2022-12-20T12:44:41.558Z,102289.59
2022-12-20T12:47:26.937Z,101895.91
2022-12-20T12:50:01.344Z,102302.69
2022-12-20T12:52:54.617Z,101916.91
2022-12-20T12:56:12.776Z,101977.81
2022-12-20T12:59:41.571Z,102017.44
2022-12-20T13:02:28.995Z,102274.63
2022-12-20T13:05:52.051Z,102278.38
2022-12-20T13:09:23.567Z,102037.13
2022-12-20T13:12:41.154Z,102275.38
2022-12-20T13:22:57.927Z,102274.00
2022-12-20T13:25:55.709Z,102279.72
2022-12-20T13:28:25.130Z,102262.41
2022-12-20T13:34:59.054Z,102066.97
2022-12-20T13:37:55.018Z,102098.72
2022-12-20T13:41:26.832Z,101851.72
2022-12-20T13:46:58.726Z,101861.78
2022-12-20T13:54:26.869Z,102019.72
2022-12-20T13:57:43.557Z,101873.72
2022-12-20T14:00:40.048Z,102130.91
2022-12-20T16:43:37.011Z,102144.78
2022-12-20T16:46:06.491Z,102173.66
2022-12-20T16:48:33.951Z,102171.88
2022-12-20T16:51:01.138Z,102076.31
2022-12-20T16:53:34.469Z,102097.22
2022-12-20T16:56:11.030Z,102154.09
2022-12-20T16:59:18.653Z,102094.03
2022-12-20T17:02:35.986Z,102068.66
2022-12-20T17:05:32.055Z,102168.81
2022-12-20T17:11:45.045Z,102205.28
2022-12-20T17:14:44.004Z,102140.16
2022-12-20T17:28:04.080Z,102116.81
2022-12-20T17:51:17.552Z,102180.78
2022-12-20T17:54:39.559Z,102184.91
2022-12-20T17:57:25.208Z,101780.25
2022-12-20T18:00:39.316Z,101759.09
2022-12-20T18:04:23.147Z,101821.34
2022-12-20T18:07:32.036Z,101909.63
2022-12-20T18:10:51.015Z,102151.81
2022-12-20T18:20:58.559Z,101944.13
2022-12-20T18:27:30.594Z,101809.56
2022-12-20T18:30:33.995Z,101831.88
2022-12-20T18:33:16.665Z,102189.09
2022-12-20T18:36:29.255Z,102129.28
2022-12-20T18:41:53.783Z,101934.63
2022-12-20T18:48:02.129Z,102079.88
2022-12-20T18:50:40.202Z,101805.53
2022-12-20T18:54:03.938Z,101973.44
2022-12-20T18:56:59.658Z,101851.34
2022-12-20T19:00:04.276Z,101736.41
2022-12-20T19:02:37.418Z,101936.84
2022-12-20T19:05:28.592Z,102190.44
2022-12-20T19:08:52.372Z,102056.16
2022-12-20T19:11:58.203Z,102160.44
2022-12-20T19:14:44.365Z,101968.88
2022-12-20T19:17:47.032Z,102169.41
2022-12-20T19:26:45.642Z,101968.53
2022-12-20T19:29:46.288Z,101818.59
2022-12-20T19:32:27.462Z,101924.44
2022-12-20T19:35:55.349Z,101837.69
2022-12-20T19:42:13.967Z,101808.84
2022-12-20T19:45:01.303Z,101983.16
2022-12-20T19:47:49.030Z,101739.16
2022-12-20T19:56:35.581Z,101739.66
2022-12-20T19:59:35.130Z,101759.81
2022-12-20T20:03:07.570Z,102038.72
2022-12-20T20:05:48.082Z,102007.72
2022-12-20T20:08:38.319Z,101955.63
2022-12-20T20:17:47.863Z,101931.06
2022-12-20T20:21:02.423Z,102185.84
2022-12-20T20:23:45.935Z,102175.78
2022-12-20T20:35:58.572Z,102185.41
2022-12-20T20:38:50.243Z,101902.63
2022-12-20T20:45:28.922Z,102180.50
2022-12-20T20:48:12.961Z,102006.31
2022-12-20T20:51:25.796Z,101777.34
2022-12-20T20:54:29.265Z,101918.06
2022-12-20T20:57:16.423Z,101926.75
2022-12-20T21:00:39.368Z,101764.31
2022-12-20T21:13:28.611Z,101902.59
2022-12-20T21:16:19.805Z,101737.97
2022-12-20T21:19:27.814Z,101810.50
2022-12-20T21:22:55.999Z,101794.63
2022-12-20T21:46:19.137Z,101947.84
2022-12-20T21:48:47.076Z,102108.13
2022-12-20T21:51:19.247Z,102112.69
2022-12-20T21:54:11.153Z,102030.84
2022-12-20T21:57:12.096Z,102047.34
2022-12-20T21:59:39.363Z,102033.63
2022-12-20T22:02:06.896Z,102118.44
2022-12-20T22:04:36.429Z,102055.16
2022-12-20T22:07:24.078Z,102070.66
2022-12-20T22:10:04.905Z,102042.75
2022-12-20T22:12:31.837Z,101996.88
2022-12-20T22:14:58.835Z,101952.50
2022-12-20T22:17:46.101Z,102015.44
2022-12-20T22:20:26.608Z,101936.09
2022-12-20T22:22:54.342Z,102089.50
2022-12-20T22:25:21.497Z,102007.84
2022-12-20T22:27:48.476Z,101951.75
2022-12-20T22:30:15.586Z,101892.75
2022-12-20T22:33:03.080Z,102028.44
2022-12-20T22:36:04.103Z,102020.91
2022-12-20T22:38:45.135Z,102097.66
2022-12-20T22:41:37.093Z,102038.31
2022-12-20T22:44:17.854Z,102072.16
2022-12-20T22:46:44.713Z,101966.09
2022-12-20T22:49:16.942Z,102009.28
2022-12-20T22:51:46.692Z,101907.06
2022-12-20T22:54:18.344Z,102032.84
2022-12-20T22:56:45.353Z,102070.75
2022-12-20T22:59:12.378Z,102046.16
2022-12-20T23:01:39.561Z,102025.91
2022-12-20T23:04:08.668Z,101932.94
2022-12-20T23:06:56.097Z,102062.00
2022-12-20T23:09:36.683Z,102049.59
2022-12-20T23:12:22.190Z,101924.09
2022-12-20T23:15:07.722Z,101946.44
2022-12-20T23:17:34.732Z,101925.78
2022-12-20T23:20:20.840Z,101935.41
2022-12-20T23:22:47.917Z,101948.63
2022-12-20T23:25:50.138Z,102042.03
2022-12-20T23:28:51.161Z,101949.06
2022-12-20T23:31:52.183Z,102041.88
2022-12-20T23:34:32.712Z,101936.06
2022-12-20T23:36:59.756Z,102000.56
2022-12-20T23:39:26.787Z,101938.59
2022-12-20T23:41:53.814Z,101965.22
2022-12-20T23:44:20.869Z,101999.63
2022-12-20T23:47:08.176Z,101971.16
2022-12-20T23:50:09.149Z,101978.66
2022-12-20T23:52:49.618Z,101998.59
2022-12-20T23:55:16.634Z,101876.81
2022-12-20T23:57:43.703Z,102016.72
